Time;durP1;ratioP1;P1;durP2;ratioP2;P2;SDS_P1;SDS_P2;PMS_P1;PMS_P2;Temp;Humidity;BMP_temperature;BMP_pressure;BME280_temperature;BME280_humidity;BME280_pressure;Samples;Min_cycle;Max_cycle;Signal;HPM_P1;HPM_P2
2021/11/16 00:00:23;;;;;;;64.53;40.07;;;8.10;99.90;;;;;;5053506;28;20536;-50
2021/11/16 00:02:50;;;;;;;60.10;38.93;;;7.80;99.90;;;;;;5053476;28;20465;-50
2021/11/16 00:05:18;;;;;;;66.07;41.50;;;8.30;99.90;;;;;;5053724;28;20437;-50
2021/11/16 00:07:44;;;;;;;68.10;40.17;;;8.00;99.90;;;;;;5052995;28;20464;-50
2021/11/16 00:10:11;;;;;;;63.13;40.00;;;8.30;99.90;;;;;;5052765;28;20953;-50
2021/11/16 00:12:38;;;;;;;67.03;38.27;;;8.00;99.90;;;;;;5053404;28;20417;-50
2021/11/16 00:15:07;;;;;;;64.60;40.90;;;7.90;99.90;;;;;;5053291;28;20402;-50
2021/11/16 00:17:34;;;;;;;58.77;37.20;;;8.20;99.90;;;;;;5053119;28;20931;-49
2021/11/16 00:20:02;;;;;;;73.37;42.07;;;7.90;99.90;;;;;;5051389;28;20452;-50
2021/11/16 00:22:30;;;;;;;61.70;38.93;;;7.80;99.90;;;;;;5053143;28;20470;-50
2021/11/16 00:25:07;;;;;;;63.80;38.87;;;8.10;99.90;;;;;;5053083;28;20977;-51
2021/11/16 00:27:36;;;;;;;67.70;38.50;;;8.30;99.90;;;;;;5053191;28;20445;-50
2021/11/16 00:30:04;;;;;;;61.37;39.30;;;7.70;99.90;;;;;;5052545;28;20488;-50
2021/11/16 00:32:31;;;;;;;66.27;40.23;;;7.70;99.90;;;;;;5053051;28;20430;-50
2021/11/16 00:34:58;;;;;;;66.53;40.20;;;7.80;99.90;;;;;;5053031;28;20448;-51
2021/11/16 00:37:27;;;;;;;69.67;39.90;;;8.00;99.90;;;;;;5052834;28;20440;-50
2021/11/16 00:39:55;;;;;;;71.80;43.47;;;7.80;99.90;;;;;;5052332;28;20565;-49
2021/11/16 00:42:23;;;;;;;64.23;38.77;;;7.80;99.90;;;;;;5052835;28;20434;-50
2021/11/16 00:44:49;;;;;;;65.07;40.73;;;8.00;99.90;;;;;;5052674;28;20439;-50
2021/11/16 00:47:16;;;;;;;65.63;41.30;;;7.90;99.90;;;;;;5052685;28;20433;-51
2021/11/16 00:49:43;;;;;;;74.30;42.53;;;7.70;99.90;;;;;;5051974;28;20525;-50
2021/11/16 00:52:10;;;;;;;63.00;40.33;;;8.20;99.90;;;;;;5052787;28;20438;-50
2021/11/16 00:54:37;;;;;;;71.63;41.10;;;7.80;99.90;;;;;;5052653;28;20445;-51
2021/11/16 00:57:06;;;;;;;65.60;39.70;;;8.00;99.90;;;;;;5052405;28;20849;-50
2021/11/16 00:59:34;;;;;;;67.93;40.17;;;7.90;99.90;;;;;;5052253;28;20432;-50
2021/11/16 01:02:01;;;;;;;63.77;39.60;;;7.90;99.90;;;;;;5052422;28;20412;-50
2021/11/16 01:04:28;;;;;;;68.03;40.90;;;7.80;99.90;;;;;;5052322;28;20438;-49
2021/11/16 01:06:55;;;;;;;72.17;42.33;;;8.10;99.90;;;;;;5052322;28;20441;-50
2021/11/16 01:09:22;;;;;;;66.77;41.70;;;8.40;99.90;;;;;;5051788;28;20849;-50
2021/11/16 01:11:49;;;;;;;70.33;41.57;;;8.10;99.90;;;;;;5052426;28;20430;-50
2021/11/16 01:14:17;;;;;;;60.73;36.53;;;7.90;99.90;;;;;;5052202;28;20412;-50
2021/11/16 01:16:44;;;;;;;75.10;41.70;;;7.80;99.90;;;;;;5052152;28;20412;-50
2021/11/16 01:19:12;;;;;;;65.63;42.13;;;8.20;99.90;;;;;;5051622;28;20462;-49
2021/11/16 01:21:39;;;;;;;66.80;42.10;;;8.10;99.90;;;;;;5051226;28;20444;-50
2021/11/16 01:24:08;;;;;;;68.20;40.90;;;8.00;99.90;;;;;;5052248;28;20412;-50
2021/11/16 01:26:36;;;;;;;67.13;41.57;;;7.80;99.90;;;;;;5051990;28;20413;-50
2021/11/16 01:29:03;;;;;;;67.10;40.73;;;8.00;99.90;;;;;;5051534;28;20657;-50
2021/11/16 01:31:32;;;;;;;73.20;43.13;;;7.70;99.90;;;;;;5050382;28;20540;-49
2021/11/16 01:34:00;;;;;;;66.90;38.13;;;8.10;99.90;;;;;;5052073;28;20423;-48
2021/11/16 01:36:27;;;;;;;68.03;41.30;;;8.00;99.90;;;;;;5052023;28;20427;-49
2021/11/16 01:38:56;;;;;;;63.77;41.00;;;7.40;99.90;;;;;;5051315;28;20809;-49
2021/11/16 01:41:23;;;;;;;78.27;43.07;;;7.80;99.90;;;;;;5051895;28;20923;-48
2021/11/16 01:43:51;;;;;;;79.77;44.57;;;7.60;99.90;;;;;;5051784;28;20465;-49
2021/11/16 01:46:19;;;;;;;76.20;42.53;;;7.70;99.90;;;;;;5051789;28;20434;-49
2021/11/16 01:48:51;;;;;;;71.70;40.00;;;7.90;99.90;;;;;;5051245;28;20452;-49
2021/11/16 01:51:21;;;;;;;71.07;41.67;;;7.70;99.90;;;;;;5051655;28;20435;-49
2021/11/16 01:53:48;;;;;;;78.23;42.33;;;7.80;99.90;;;;;;5051637;28;20446;-49
2021/11/16 01:56:16;;;;;;;78.33;45.20;;;8.00;99.90;;;;;;5051726;28;20401;-49
2021/11/16 01:58:43;;;;;;;74.77;44.13;;;7.30;99.90;;;;;;5051114;28;20437;-49
2021/11/16 02:01:09;;;;;;;74.03;44.23;;;7.90;99.90;;;;;;5051703;28;20469;-49
2021/11/16 02:03:37;;;;;;;64.93;40.00;;;7.90;99.90;;;;;;5050149;28;20457;-49
2021/11/16 02:06:22;;;;;;;66.60;42.33;;;7.70;99.90;;;;;;5052295;28;20416;-49
2021/11/16 02:08:50;;;;;;;71.73;42.60;;;8.20;99.90;;;;;;5051320;28;20823;-49
2021/11/16 02:11:16;;;;;;;76.57;42.57;;;7.90;99.90;;;;;;5051730;28;20785;-48
2021/11/16 02:13:43;;;;;;;66.77;42.30;;;7.50;99.90;;;;;;5051452;28;20436;-49
2021/11/16 02:16:10;;;;;;;74.07;42.47;;;7.70;99.90;;;;;;5051520;28;20443;-49
2021/11/16 02:18:38;;;;;;;75.00;44.27;;;7.90;99.90;;;;;;5051007;28;20416;-49
2021/11/16 02:21:08;;;;;;;69.23;42.00;;;7.60;99.90;;;;;;5051616;28;20795;-49
2021/11/16 02:23:35;;;;;;;72.87;44.13;;;7.80;99.90;;;;;;5051287;28;20415;-49
2021/11/16 02:26:01;;;;;;;71.63;42.13;;;7.60;99.90;;;;;;5051488;28;20435;-49
2021/11/16 02:28:28;;;;;;;66.70;41.40;;;7.90;99.90;;;;;;5051094;28;20965;-49
2021/11/16 02:30:55;;;;;;;76.10;41.60;;;7.50;99.90;;;;;;5051238;28;20467;-49
2021/11/16 02:33:22;;;;;;;67.33;42.77;;;7.30;99.90;;;;;;5054355;28;20462;-50
2021/11/16 02:35:50;;;;;;;68.53;42.33;;;7.90;99.90;;;;;;5055291;28;20401;-49
2021/11/16 02:38:19;;;;;;;72.00;43.10;;;7.80;99.90;;;;;;5054755;28;20540;-49
2021/11/16 02:40:46;;;;;;;65.03;42.20;;;7.70;99.90;;;;;;5054915;28;20439;-49
2021/11/16 02:43:13;;;;;;;71.50;43.30;;;8.10;99.90;;;;;;5055018;28;20423;-49
2021/11/16 02:45:41;;;;;;;77.23;46.40;;;7.90;99.90;;;;;;5054871;28;20407;-49
2021/11/16 02:48:14;;;;;;;70.70;42.27;;;7.60;99.90;;;;;;5054967;28;20425;-49
2021/11/16 02:50:43;;;;;;;75.77;42.30;;;7.80;99.90;;;;;;5054981;28;20860;-49
2021/11/16 02:53:10;;;;;;;72.07;42.07;;;8.30;99.90;;;;;;5054885;28;20433;-48
2021/11/16 02:55:38;;;;;;;62.00;41.30;;;7.30;99.90;;;;;;5054808;28;20443;-49
2021/11/16 02:58:06;;;;;;;67.07;40.67;;;7.60;99.90;;;;;;5054282;28;20451;-49
2021/11/16 03:00:34;;;;;;;71.03;42.13;;;8.00;99.90;;;;;;5054832;28;20808;-49
2021/11/16 03:03:01;;;;;;;75.70;43.87;;;8.20;99.90;;;;;;5054801;28;20437;-48
2021/11/16 03:05:31;;;;;;;70.53;41.03;;;7.40;99.90;;;;;;5055072;28;20416;-48
2021/11/16 03:07:59;;;;;;;65.20;41.17;;;8.30;99.90;;;;;;5054359;28;20537;-50
2021/11/16 03:10:29;;;;;;;70.93;41.60;;;7.80;99.90;;;;;;5054404;28;20469;-50
2021/11/16 03:12:57;;;;;;;70.23;42.07;;;7.50;99.90;;;;;;5054540;28;20770;-50
2021/11/16 03:15:24;;;;;;;67.30;43.50;;;7.70;99.90;;;;;;5054435;28;20448;-48
2021/11/16 03:17:51;;;;;;;72.40;41.83;;;7.60;99.90;;;;;;5054105;28;20428;-48
2021/11/16 03:20:18;;;;;;;75.77;42.80;;;7.90;99.90;;;;;;5054263;28;20494;-48
2021/11/16 03:22:48;;;;;;;70.87;39.17;;;7.70;99.90;;;;;;5054306;28;20405;-48
2021/11/16 03:25:15;;;;;;;67.90;39.70;;;7.70;99.90;;;;;;5054270;28;20437;-48
2021/11/16 03:27:44;;;;;;;73.70;42.10;;;7.30;99.90;;;;;;5053977;28;20444;-48
2021/11/16 03:30:13;;;;;;;63.23;40.87;;;7.90;99.90;;;;;;5054181;28;20538;-48
2021/11/16 03:32:39;;;;;;;69.30;42.93;;;7.60;99.90;;;;;;5053969;28;20983;-48
2021/11/16 03:35:08;;;;;;;73.03;43.60;;;7.40;99.90;;;;;;5054139;28;20442;-49
2021/11/16 03:37:40;;;;;;;70.93;41.97;;;7.60;99.90;;;;;;5053916;28;20948;-48
2021/11/16 03:40:08;;;;;;;67.20;41.07;;;7.50;99.90;;;;;;5053978;28;20472;-48
2021/11/16 03:42:36;;;;;;;61.70;40.47;;;7.70;99.90;;;;;;5053938;28;20457;-48
2021/11/16 03:45:04;;;;;;;76.40;42.80;;;8.10;99.90;;;;;;5052870;28;20470;-48
2021/11/16 03:47:32;;;;;;;64.83;42.10;;;7.80;99.90;;;;;;5053903;28;20850;-48
2021/11/16 03:49:58;;;;;;;69.30;40.67;;;7.80;99.90;;;;;;5053216;28;20527;-51
2021/11/16 03:52:26;;;;;;;64.50;40.87;;;7.40;99.90;;;;;;5053924;28;20427;-50
2021/11/16 03:54:53;;;;;;;66.70;40.97;;;7.50;99.90;;;;;;5053625;28;20446;-48
2021/11/16 03:57:19;;;;;;;68.23;40.30;;;7.60;99.90;;;;;;5053758;28;20469;-50
2021/11/16 03:59:46;;;;;;;59.10;40.03;;;8.20;99.90;;;;;;5053387;28;20459;-50
2021/11/16 04:02:13;;;;;;;67.00;41.90;;;8.20;99.90;;;;;;5053751;28;20445;-48
2021/11/16 04:04:42;;;;;;;69.63;43.23;;;7.40;99.90;;;;;;5052142;28;20450;-48
2021/11/16 04:07:09;;;;;;;65.33;39.87;;;7.80;99.90;;;;;;5053355;28;20469;-47
2021/11/16 04:09:36;;;;;;;59.43;38.53;;;8.00;99.90;;;;;;5053031;28;20481;-47
2021/11/16 04:12:03;;;;;;;63.83;38.70;;;8.00;99.90;;;;;;5053229;28;20854;-47
2021/11/16 04:14:30;;;;;;;69.27;40.27;;;7.80;99.90;;;;;;5053296;28;20416;-47
2021/11/16 04:16:56;;;;;;;68.10;41.17;;;7.90;99.90;;;;;;5053173;28;20532;-48
2021/11/16 04:19:23;;;;;;;61.43;38.07;;;7.40;99.90;;;;;;5052649;28;20474;-48
2021/11/16 04:21:51;;;;;;;66.23;39.40;;;7.70;99.90;;;;;;5053295;28;20438;-48
2021/11/16 04:24:18;;;;;;;66.90;40.27;;;7.70;99.90;;;;;;5053178;28;20437;-50
2021/11/16 04:26:44;;;;;;;75.00;40.97;;;8.10;99.90;;;;;;5053046;28;20427;-50
2021/11/16 04:29:11;;;;;;;66.30;42.00;;;7.70;99.90;;;;;;5052620;28;20945;-48
2021/11/16 04:31:37;;;;;;;68.27;39.30;;;7.50;99.90;;;;;;5053348;28;20916;-51
2021/11/16 04:34:05;;;;;;;65.03;40.40;;;7.90;99.90;;;;;;5053017;28;20424;-48
2021/11/16 04:36:32;;;;;;;66.47;41.07;;;8.20;99.90;;;;;;5052793;28;20437;-50
2021/11/16 04:39:00;;;;;;;67.77;42.47;;;7.60;99.90;;;;;;5052553;28;20479;-50
2021/11/16 04:41:27;;;;;;;73.03;42.80;;;8.00;99.90;;;;;;5052899;28;20437;-49
2021/11/16 04:43:56;;;;;;;66.17;40.33;;;8.00;99.90;;;;;;5052664;28;20942;-50
2021/11/16 04:46:25;;;;;;;70.97;40.73;;;7.90;99.90;;;;;;5052442;28;20437;-50
2021/11/16 04:48:57;;;;;;;65.90;41.63;;;7.70;99.90;;;;;;5052102;28;20559;-48
2021/11/16 04:51:43;;;;;;;69.40;41.20;;;7.70;99.90;;;;;;5052494;28;20453;-48
2021/11/16 04:54:24;;;;;;;73.87;42.40;;;7.70;99.90;;;;;;5052771;28;20447;-48
2021/11/16 04:59:44;;;;;;;68.43;42.30;;;8.20;99.90;;;;;;5052561;28;20425;-48
2021/11/16 05:04:56;;;;;;;73.90;41.77;;;7.40;99.90;;;;;;5052108;28;21008;-51
2021/11/16 05:07:25;;;;;;;74.47;40.83;;;7.80;99.90;;;;;;5052140;28;20412;-50
2021/11/16 05:09:55;;;;;;;66.33;43.20;;;7.70;99.90;;;;;;5051612;28;20821;-51
2021/11/16 05:12:24;;;;;;;65.37;41.40;;;7.70;99.90;;;;;;5052270;28;20416;-49
2021/11/16 05:14:51;;;;;;;80.43;43.60;;;7.90;99.90;;;;;;5052142;28;20445;-49
2021/11/16 05:17:18;;;;;;;77.80;43.30;;;7.60;99.90;;;;;;5051924;28;20433;-49
2021/11/16 05:19:44;;;;;;;75.57;41.37;;;7.80;99.90;;;;;;5051581;28;20797;-48
2021/11/16 05:22:11;;;;;;;76.53;41.87;;;7.80;99.90;;;;;;5051871;28;20447;-48
2021/11/16 05:24:38;;;;;;;69.63;39.77;;;7.70;99.90;;;;;;5051466;28;20437;-48
2021/11/16 05:27:08;;;;;;;71.93;41.90;;;7.70;99.90;;;;;;5051437;28;20445;-47
2021/11/16 05:29:35;;;;;;;72.67;43.33;;;7.60;99.90;;;;;;5051140;28;20453;-50
2021/11/16 05:32:01;;;;;;;73.80;42.17;;;7.80;99.90;;;;;;5051470;28;20468;-50
2021/11/16 05:34:28;;;;;;;77.67;44.63;;;7.90;99.90;;;;;;5051365;28;20415;-48
2021/11/16 05:36:55;;;;;;;73.43;44.77;;;7.80;99.90;;;;;;5051284;28;20409;-48
2021/11/16 05:39:21;;;;;;;74.83;40.07;;;7.90;99.90;;;;;;5051842;28;20456;-49
2021/11/16 05:41:48;;;;;;;78.63;42.00;;;7.80;99.90;;;;;;5051521;28;20965;-49
2021/11/16 05:44:17;;;;;;;72.30;40.83;;;8.30;99.90;;;;;;5051606;28;20432;-48
2021/11/16 05:46:43;;;;;;;76.80;43.80;;;7.50;99.90;;;;;;5051110;28;20414;-48
2021/11/16 05:49:10;;;;;;;71.67;43.63;;;7.90;99.90;;;;;;5051300;28;20440;-49
2021/11/16 05:51:37;;;;;;;69.93;42.33;;;7.80;99.90;;;;;;5051378;28;20466;-48
2021/11/16 05:54:06;;;;;;;74.23;42.60;;;8.00;99.90;;;;;;5051690;28;20804;-49
2021/11/16 05:56:34;;;;;;;77.37;42.10;;;7.90;99.90;;;;;;5051670;28;20445;-49
2021/11/16 05:59:03;;;;;;;78.00;45.20;;;7.80;99.90;;;;;;5050787;28;20781;-49
2021/11/16 06:01:32;;;;;;;74.83;44.13;;;8.00;99.90;;;;;;5051507;28;20796;-49
2021/11/16 06:03:59;;;;;;;79.00;45.87;;;7.80;99.90;;;;;;5051394;28;20954;-49
2021/11/16 06:06:27;;;;;;;73.80;42.00;;;8.00;99.90;;;;;;5051208;28;20441;-49
2021/11/16 06:08:54;;;;;;;78.67;44.73;;;8.00;99.90;;;;;;5054517;28;20888;-49
2021/11/16 06:11:22;;;;;;;75.27;43.23;;;7.40;99.90;;;;;;5054378;28;20459;-49
2021/11/16 06:13:50;;;;;;;76.77;44.17;;;8.30;99.90;;;;;;5055206;28;20440;-49
2021/11/16 06:16:17;;;;;;;89.00;45.70;;;7.80;99.90;;;;;;5055239;28;20437;-49
2021/11/16 06:18:51;;;;;;;73.10;42.70;;;8.10;99.90;;;;;;5054502;28;20422;-49
2021/11/16 06:21:17;;;;;;;74.23;43.30;;;7.60;99.90;;;;;;5054906;28;20834;-49
2021/11/16 06:23:44;;;;;;;84.83;44.60;;;7.50;99.90;;;;;;5055217;28;20412;-49
2021/11/16 06:26:11;;;;;;;72.47;39.80;;;8.20;99.90;;;;;;5055143;28;20423;-49
2021/11/16 06:28:38;;;;;;;80.13;43.67;;;7.80;99.90;;;;;;5053666;28;20942;-50
2021/11/16 06:31:04;;;;;;;76.27;43.50;;;7.40;99.90;;;;;;5054401;28;20480;-50
2021/11/16 06:33:31;;;;;;;71.57;43.00;;;7.50;99.90;;;;;;5054801;28;20428;-49
2021/11/16 06:35:59;;;;;;;69.27;39.77;;;7.50;99.90;;;;;;5054730;28;20434;-49
2021/11/16 06:38:26;;;;;;;76.60;44.97;;;7.80;99.90;;;;;;5053878;28;20445;-49
2021/11/16 06:40:53;;;;;;;77.63;40.83;;;7.70;99.90;;;;;;5053846;28;20469;-51
2021/11/16 06:43:21;;;;;;;70.30;40.60;;;7.90;99.90;;;;;;5053369;28;20414;-49
2021/11/16 06:45:50;;;;;;;79.87;42.00;;;7.90;99.90;;;;;;5053874;28;20472;-49
2021/11/16 06:48:17;;;;;;;66.47;39.50;;;7.80;99.90;;;;;;5053479;28;20481;-49
2021/11/16 06:50:44;;;;;;;67.10;39.13;;;7.70;99.90;;;;;;5053944;28;20480;-49
2021/11/16 06:53:12;;;;;;;64.77;39.17;;;7.80;99.90;;;;;;5054192;28;20804;-49
2021/11/16 06:55:39;;;;;;;71.50;37.57;;;7.80;99.90;;;;;;5053971;28;20507;-50
2021/11/16 06:58:06;;;;;;;62.80;36.80;;;7.90;99.90;;;;;;5053727;28;20437;-50
2021/11/16 07:00:34;;;;;;;64.80;33.83;;;7.60;99.90;;;;;;5053856;28;21016;-50
2021/11/16 07:03:03;;;;;;;62.97;37.70;;;7.70;99.90;;;;;;5054012;28;20770;-50
2021/11/16 07:05:30;;;;;;;63.33;36.80;;;8.30;99.90;;;;;;5054173;28;20441;-50
2021/11/16 07:07:57;;;;;;;64.80;36.70;;;7.80;99.90;;;;;;5053589;28;20429;-50
2021/11/16 07:10:31;;;;;;;62.27;34.33;;;7.90;99.90;;;;;;5052065;28;20490;-50
2021/11/16 07:13:05;;;;;;;60.13;33.60;;;8.00;99.90;;;;;;5052127;28;20641;-51
2021/11/16 07:15:33;;;;;;;56.13;34.23;;;8.00;99.90;;;;;;5054469;28;20839;-50
2021/11/16 07:18:04;;;;;;;59.83;36.67;;;7.80;99.90;;;;;;5053631;28;20512;-50
2021/11/16 07:20:32;;;;;;;59.30;37.37;;;7.70;99.90;;;;;;5053797;28;20959;-50
2021/11/16 07:22:59;;;;;;;66.33;36.93;;;7.80;99.90;;;;;;5053908;28;20430;-50
2021/11/16 07:25:27;;;;;;;55.60;34.57;;;7.80;99.90;;;;;;5053631;28;20460;-50
2021/11/16 07:27:56;;;;;;;53.17;34.97;;;7.80;99.90;;;;;;5053193;28;20461;-50
2021/11/16 07:30:25;;;;;;;65.20;33.50;;;7.80;99.90;;;;;;5053386;28;20481;-50
2021/11/16 07:32:54;;;;;;;60.90;35.77;;;8.00;99.90;;;;;;5053448;28;20531;-50
2021/11/16 07:35:25;;;;;;;61.97;36.27;;;8.30;99.90;;;;;;5053433;28;20429;-50
2021/11/16 07:37:56;;;;;;;63.93;36.60;;;7.90;99.90;;;;;;5053422;28;20451;-50
2021/11/16 07:40:24;;;;;;;66.63;36.57;;;8.20;99.90;;;;;;5053069;28;20487;-50
2021/11/16 07:42:55;;;;;;;61.17;36.50;;;7.80;99.90;;;;;;5053303;28;20433;-50
2021/11/16 07:45:23;;;;;;;62.27;36.37;;;7.70;99.90;;;;;;5053461;28;20437;-50
2021/11/16 07:47:52;;;;;;;72.87;38.33;;;8.10;99.90;;;;;;5053013;28;20803;-51
2021/11/16 07:50:40;;;;;;;62.60;36.47;;;8.10;99.90;;;;;;5052900;28;20515;-50
2021/11/16 07:53:19;;;;;;;61.67;35.97;;;8.10;99.90;;;;;;5053365;28;20451;-50
2021/11/16 07:55:56;;;;;;;65.53;36.37;;;7.70;99.90;;;;;;5053523;28;20430;-50
2021/11/16 07:58:29;;;;;;;71.37;37.10;;;7.70;99.90;;;;;;5052600;28;20439;-50
2021/11/16 08:00:56;;;;;;;65.90;37.50;;;8.00;99.90;;;;;;5053044;28;20429;-50
2021/11/16 08:03:26;;;;;;;66.20;36.87;;;8.30;99.90;;;;;;5052687;28;20452;-50
2021/11/16 08:06:00;;;;;;;68.83;39.20;;;8.10;99.90;;;;;;5053116;28;20510;-50
2021/11/16 08:08:39;;;;;;;67.37;37.70;;;8.00;99.90;;;;;;5052766;28;20784;-50
2021/11/16 08:11:12;;;;;;;67.97;37.53;;;8.50;99.90;;;;;;5052462;28;20484;-49
2021/11/16 08:13:53;;;;;;;62.90;38.70;;;8.20;99.90;;;;;;5052406;28;20969;-50
2021/11/16 08:16:20;;;;;;;65.57;38.50;;;8.40;99.90;;;;;;5052235;28;20580;-50
2021/11/16 08:18:49;;;;;;;79.30;40.37;;;8.20;99.90;;;;;;5052037;28;20405;-49
2021/11/16 08:21:17;;;;;;;64.47;36.37;;;8.40;99.90;;;;;;5052471;28;20851;-50
2021/11/16 08:23:49;;;;;;;74.20;38.73;;;8.20;99.90;;;;;;5052334;28;20436;-49
2021/11/16 08:26:16;;;;;;;64.30;37.67;;;8.20;99.90;;;;;;5052494;28;20408;-49
2021/11/16 08:28:45;;;;;;;72.67;38.50;;;8.40;99.90;;;;;;5052247;28;20435;-49
2021/11/16 08:31:14;;;;;;;75.37;38.00;;;8.10;99.90;;;;;;5051934;28;20493;-50
2021/11/16 08:33:42;;;;;;;79.33;40.30;;;8.40;99.90;;;;;;5052020;28;20805;-50
2021/11/16 08:36:09;;;;;;;69.80;38.33;;;8.60;99.90;;;;;;5051630;28;20449;-50
2021/11/16 08:38:37;;;;;;;67.33;37.13;;;8.50;99.90;;;;;;5051820;28;20438;-50
2021/11/16 08:41:04;;;;;;;72.27;39.60;;;8.00;99.90;;;;;;5052246;28;20858;-50
2021/11/16 08:43:37;;;;;;;78.30;44.33;;;8.90;99.90;;;;;;5051535;28;20401;-49
2021/11/16 08:46:05;;;;;;;76.43;41.77;;;8.60;99.90;;;;;;5052117;28;20468;-50
2021/11/16 08:48:39;;;;;;;67.10;39.03;;;8.80;99.90;;;;;;5051629;28;20413;-50
2021/11/16 08:51:08;;;;;;;67.23;36.83;;;8.50;99.90;;;;;;5052184;28;20921;-50
2021/11/16 08:53:37;;;;;;;68.67;38.03;;;9.10;99.90;;;;;;5051958;28;20504;-50
2021/11/16 08:56:07;;;;;;;66.40;37.30;;;8.30;99.90;;;;;;5052395;28;20409;-50
2021/11/16 08:58:33;;;;;;;64.97;37.77;;;9.20;99.90;;;;;;5050068;28;20421;-50
2021/11/16 09:01:03;;;;;;;73.70;37.57;;;9.00;99.90;;;;;;5048641;28;20463;-50
2021/11/16 09:03:34;;;;;;;69.17;38.47;;;8.90;99.90;;;;;;5053761;28;20494;-50
2021/11/16 09:06:13;;;;;;;62.90;37.07;;;9.20;99.90;;;;;;5057845;28;20818;-50
2021/11/16 09:08:41;;;;;;;67.53;39.17;;;9.30;99.90;;;;;;5056445;28;20446;-50
2021/11/16 09:11:14;;;;;;;66.07;37.50;;;9.10;99.90;;;;;;5054511;28;20444;-50
2021/11/16 09:13:42;;;;;;;60.27;36.23;;;9.50;99.90;;;;;;5069941;28;20778;-49
2021/11/16 09:16:10;;;;;;;70.00;37.57;;;9.30;99.90;;;;;;5068434;28;20441;-50
2021/11/16 09:18:40;;;;;;;66.93;36.13;;;9.10;99.90;;;;;;5051301;28;20408;-50
2021/11/16 09:21:10;;;;;;;63.03;37.90;;;9.20;99.90;;;;;;5066361;28;20854;-50
2021/11/16 09:23:40;;;;;;;66.80;37.03;;;9.50;99.90;;;;;;5071419;28;20429;-50
2021/11/16 09:26:18;;;;;;;71.90;38.13;;;9.70;99.90;;;;;;5071448;28;20800;-50
2021/11/16 09:28:51;;;;;;;64.83;39.23;;;9.60;99.90;;;;;;5070866;28;20437;-50
2021/11/16 09:31:20;;;;;;;69.83;39.57;;;8.80;99.90;;;;;;5071108;28;20523;-50
2021/11/16 09:33:49;;;;;;;66.77;38.57;;;9.50;99.90;;;;;;5062916;28;20434;-50
2021/11/16 09:36:38;;;;;;;66.47;37.10;;;9.50;99.90;;;;;;5052705;28;20919;-50
2021/11/16 09:39:08;;;;;;;66.40;36.87;;;9.40;99.90;;;;;;5030925;28;20471;-51
2021/11/16 09:41:41;;;;;;;59.43;36.13;;;9.40;99.90;;;;;;5030650;28;20442;-50
2021/11/16 09:44:12;;;;;;;65.60;36.93;;;9.50;99.90;;;;;;5031343;28;20932;-51
2021/11/16 09:46:49;;;;;;;57.03;34.40;;;9.10;99.90;;;;;;5031146;28;20431;-51
2021/11/16 09:49:24;;;;;;;65.00;37.30;;;9.30;99.90;;;;;;5030996;28;20451;-51
2021/11/16 09:51:56;;;;;;;65.93;37.63;;;9.90;99.90;;;;;;5031188;28;20474;-50
2021/11/16 09:54:23;;;;;;;58.57;35.93;;;8.60;99.90;;;;;;5030916;28;20932;-50
2021/11/16 09:57:04;;;;;;;57.17;36.10;;;9.60;99.90;;;;;;5030766;28;20474;-51
2021/11/16 09:59:31;;;;;;;57.20;35.27;;;9.60;99.90;;;;;;5030825;28;20436;-50
2021/11/16 10:01:59;;;;;;;61.00;34.23;;;9.60;99.90;;;;;;5031449;28;20439;-51
2021/11/16 10:04:31;;;;;;;62.17;35.87;;;9.10;99.90;;;;;;5040967;28;20777;-51
2021/11/16 10:06:58;;;;;;;61.57;35.73;;;9.10;99.90;;;;;;5050317;28;20798;-50
2021/11/16 10:09:24;;;;;;;57.20;34.70;;;9.70;99.90;;;;;;5050675;28;20455;-50
2021/11/16 10:11:53;;;;;;;64.70;36.10;;;10.00;99.90;;;;;;5050937;28;20488;-51
2021/11/16 10:14:22;;;;;;;62.33;38.20;;;10.00;99.90;;;;;;5050924;28;20463;-50
2021/11/16 10:16:51;;;;;;;60.97;37.30;;;9.70;99.90;;;;;;5051246;28;20434;-51
2021/11/16 10:19:17;;;;;;;66.23;36.90;;;9.80;99.90;;;;;;5050455;28;20504;-50
2021/11/16 10:21:45;;;;;;;61.87;36.20;;;9.10;99.90;;;;;;5050433;28;20497;-51
2021/11/16 10:24:29;;;;;;;62.63;35.97;;;9.90;99.90;;;;;;5051207;28;20488;-51
2021/11/16 10:27:01;;;;;;;64.13;36.90;;;10.00;99.90;;;;;;5051165;28;20454;-51
2021/11/16 10:29:27;;;;;;;58.20;33.97;;;10.10;99.90;;;;;;5050040;28;20473;-49
2021/11/16 10:31:55;;;;;;;62.37;37.23;;;9.50;99.90;;;;;;5050814;28;20470;-51
2021/11/16 10:34:38;;;;;;;60.57;35.10;;;10.00;99.90;;;;;;5049081;28;20554;-51
2021/11/16 10:37:08;;;;;;;62.37;36.90;;;9.80;99.90;;;;;;5050895;28;20963;-51
2021/11/16 10:39:34;;;;;;;63.23;35.47;;;9.80;99.90;;;;;;5068890;28;20820;-50
2021/11/16 10:42:04;;;;;;;59.30;34.83;;;10.00;99.90;;;;;;5070913;28;20437;-51
2021/11/16 10:44:36;;;;;;;63.60;36.13;;;9.50;99.90;;;;;;5070819;28;20429;-51
2021/11/16 10:47:04;;;;;;;63.50;37.17;;;10.00;99.90;;;;;;5070822;28;20445;-51
2021/11/16 10:49:31;;;;;;;62.13;38.27;;;9.90;99.90;;;;;;5070152;28;20557;-50
2021/11/16 10:51:58;;;;;;;64.50;36.63;;;10.40;99.90;;;;;;5070946;28;20469;-50
2021/11/16 10:54:27;;;;;;;62.53;38.07;;;10.20;99.90;;;;;;5073604;28;20437;-50
2021/11/16 10:57:00;;;;;;;60.00;35.60;;;10.20;99.90;;;;;;5074306;28;20440;-51
2021/11/16 10:59:30;;;;;;;53.17;33.70;;;10.60;99.90;;;;;;5074218;28;20970;-50
2021/11/16 11:01:59;;;;;;;56.37;35.37;;;10.40;99.90;;;;;;5074602;28;20437;-50
2021/11/16 11:04:28;;;;;;;58.43;35.20;;;10.20;99.90;;;;;;5071125;28;20441;-51
2021/11/16 11:06:55;;;;;;;69.13;39.13;;;10.30;99.90;;;;;;5054081;28;20997;-51
2021/11/16 11:09:23;;;;;;;64.73;37.80;;;10.00;99.90;;;;;;5052768;28;20527;-51
2021/11/16 11:11:54;;;;;;;57.40;34.40;;;10.40;99.90;;;;;;5053815;28;20502;-51
2021/11/16 11:14:22;;;;;;;59.93;35.60;;;10.30;99.90;;;;;;5054290;28;20445;-50
2021/11/16 11:16:52;;;;;;;64.43;35.97;;;10.50;99.90;;;;;;5054088;28;21000;-50
2021/11/16 11:19:21;;;;;;;54.00;33.13;;;10.40;99.90;;;;;;5053266;28;20450;-49
2021/11/16 11:21:55;;;;;;;60.90;35.80;;;10.60;99.90;;;;;;5053494;28;20854;-50
2021/11/16 11:24:27;;;;;;;56.17;34.87;;;10.70;99.90;;;;;;5053762;28;20521;-50
2021/11/16 11:26:59;;;;;;;57.13;35.40;;;10.70;99.90;;;;;;5053292;28;20489;-49
2021/11/16 11:29:31;;;;;;;54.00;35.20;;;10.90;99.90;;;;;;5053062;28;20450;-50
2021/11/16 11:32:03;;;;;;;54.93;34.33;;;10.50;99.90;;;;;;5053079;28;20479;-49
2021/11/16 11:34:39;;;;;;;57.30;37.30;;;10.10;99.90;;;;;;5053421;28;20442;-50
2021/11/16 11:37:12;;;;;;;63.00;36.93;;;10.50;99.90;;;;;;5053439;28;20450;-50
2021/11/16 11:39:39;;;;;;;56.27;34.13;;;10.50;99.90;;;;;;5062979;22;20645;-52
2021/11/16 11:42:12;;;;;;;53.33;34.13;;;10.40;99.90;;;;;;5033439;28;20424;-52
2021/11/16 11:44:44;;;;;;;58.47;34.57;;;10.40;99.90;;;;;;5033448;28;20435;-51
2021/11/16 11:47:11;;;;;;;58.33;34.43;;;10.80;99.90;;;;;;5033058;28;20406;-51
2021/11/16 11:49:41;;;;;;;53.47;34.30;;;10.10;99.90;;;;;;5031777;28;20475;-52
2021/11/16 11:52:07;;;;;;;58.67;35.77;;;10.50;99.90;;;;;;5033721;28;20858;-51
2021/11/16 11:54:34;;;;;;;63.77;36.00;;;10.30;99.90;;;;;;5034241;28;20566;-52
2021/11/16 11:57:01;;;;;;;55.13;33.70;;;10.50;99.90;;;;;;5033685;28;20908;-52
2021/11/16 11:59:29;;;;;;;56.43;34.97;;;10.60;99.90;;;;;;5033001;28;20461;-51
2021/11/16 12:01:57;;;;;;;63.17;35.67;;;10.60;99.90;;;;;;5033222;28;20431;-51
2021/11/16 12:04:23;;;;;;;58.17;34.80;;;10.40;99.90;;;;;;5030915;28;20833;-54
2021/11/16 12:06:53;;;;;;;58.07;35.20;;;10.20;99.90;;;;;;5032969;28;20945;-51
2021/11/16 12:09:22;;;;;;;55.20;36.37;;;10.40;99.90;;;;;;5032372;28;20456;-51
2021/11/16 12:11:49;;;;;;;61.70;37.40;;;10.40;99.90;;;;;;5032600;28;20474;-52
2021/11/16 12:14:38;;;;;;;58.13;36.80;;;10.00;99.90;;;;;;5032439;28;20797;-52
2021/11/16 12:17:09;;;;;;;56.47;35.80;;;10.50;99.90;;;;;;5032704;28;20447;-51
2021/11/16 12:19:46;;;;;;;48.60;31.63;;;10.50;99.90;;;;;;5032448;28;20897;-51
2021/11/16 12:22:23;;;;;;;54.50;34.23;;;10.40;99.90;;;;;;5033188;28;20447;-52
2021/11/16 12:24:52;;;;;;;52.60;33.20;;;10.70;99.90;;;;;;5032600;28;20459;-51
2021/11/16 12:27:21;;;;;;;62.33;35.10;;;10.60;99.90;;;;;;5032958;28;20445;-52
2021/11/16 12:29:51;;;;;;;60.30;36.20;;;10.60;99.90;;;;;;5032857;28;20445;-51
2021/11/16 12:32:22;;;;;;;62.73;37.97;;;10.60;99.90;;;;;;5032517;28;20799;-51
2021/11/16 12:34:53;;;;;;;60.20;36.00;;;10.10;99.90;;;;;;5032263;28;20441;-51
2021/11/16 12:37:36;;;;;;;75.17;37.60;;;10.90;99.90;;;;;;5032061;28;20468;-51
2021/11/16 12:40:08;;;;;;;64.30;36.80;;;10.60;99.90;;;;;;5051871;28;21016;-52
2021/11/16 12:42:35;;;;;;;63.53;36.50;;;10.60;99.90;;;;;;5052197;28;20565;-52
2021/11/16 12:45:08;;;;;;;56.93;35.80;;;10.60;99.90;;;;;;5051916;28;20434;-51
2021/11/16 12:47:36;;;;;;;65.70;38.00;;;10.60;99.90;;;;;;5051984;28;20463;-51
2021/11/16 12:50:12;;;;;;;61.03;35.23;;;10.50;99.90;;;;;;5051570;28;20981;-53